sensor_id;sensor_type;location;lat;lon;timestamp;temperature;humidity
12027;DHT22;6074;52.676;7.284;2022-08-14T00:03:17;20.40;99.90
12027;DHT22;6074;52.676;7.284;2022-08-14T00:08:11;20.30;99.90
12027;DHT22;6074;52.676;7.284;2022-08-14T00:10:39;20.30;97.50
12027;DHT22;6074;52.676;7.284;2022-08-14T00:15:36;20.60;99.90
12027;DHT22;6074;52.676;7.284;2022-08-14T00:18:04;20.30;98.30
12027;DHT22;6074;52.676;7.284;2022-08-14T00:20:35;20.20;99.90
12027;DHT22;6074;52.676;7.284;2022-08-14T00:23:04;20.20;98.30
12027;DHT22;6074;52.676;7.284;2022-08-14T00:27:59;20.10;98.80
12027;DHT22;6074;52.676;7.284;2022-08-14T00:32:54;19.80;99.90
12027;DHT22;6074;52.676;7.284;2022-08-14T00:35:22;20.20;99.90
12027;DHT22;6074;52.676;7.284;2022-08-14T00:40:17;19.80;99.90
12027;DHT22;6074;52.676;7.284;2022-08-14T00:45:14;19.70;99.90
12027;DHT22;6074;52.676;7.284;2022-08-14T00:47:42;20.10;99.90
12027;DHT22;6074;52.676;7.284;2022-08-14T00:50:12;20.20;99.90
12027;DHT22;6074;52.676;7.284;2022-08-14T00:55:07;20.40;99.90
12027;DHT22;6074;52.676;7.284;2022-08-14T00:57:35;20.80;99.90
12027;DHT22;6074;52.676;7.284;2022-08-14T01:00:06;20.50;99.90
12027;DHT22;6074;52.676;7.284;2022-08-14T01:02:36;20.60;99.90
12027;DHT22;6074;52.676;7.284;2022-08-14T01:05:05;20.70;99.90
12027;DHT22;6074;52.676;7.284;2022-08-14T01:10:01;20.40;99.90
12027;DHT22;6074;52.676;7.284;2022-08-14T01:12:30;20.70;99.90
12027;DHT22;6074;52.676;7.284;2022-08-14T01:14:59;20.50;99.90
12027;DHT22;6074;52.676;7.284;2022-08-14T01:17:28;20.80;99.90
12027;DHT22;6074;52.676;7.284;2022-08-14T01:20:17;20.50;99.90
12027;DHT22;6074;52.676;7.284;2022-08-14T01:23:03;21.20;99.90
12027;DHT22;6074;52.676;7.284;2022-08-14T01:28:03;20.60;99.90
12027;DHT22;6074;52.676;7.284;2022-08-14T01:30:30;21.30;99.90
12027;DHT22;6074;52.676;7.284;2022-08-14T01:33:02;20.60;99.90
12027;DHT22;6074;52.676;7.284;2022-08-14T01:35:29;20.10;99.90
12027;DHT22;6074;52.676;7.284;2022-08-14T01:40:26;20.40;99.90
12027;DHT22;6074;52.676;7.284;2022-08-14T01:52:42;20.70;99.90
12027;DHT22;6074;52.676;7.284;2022-08-14T01:55:09;20.30;99.90
12027;DHT22;6074;52.676;7.284;2022-08-14T01:57:42;21.00;99.90
12027;DHT22;6074;52.676;7.284;2022-08-14T02:00:11;20.40;99.90
12027;DHT22;6074;52.676;7.284;2022-08-14T02:05:10;20.50;99.90
12027;DHT22;6074;52.676;7.284;2022-08-14T02:07:37;20.60;99.90
12027;DHT22;6074;52.676;7.284;2022-08-14T02:10:05;20.40;99.90
12027;DHT22;6074;52.676;7.284;2022-08-14T02:12:32;20.70;99.90
12027;DHT22;6074;52.676;7.284;2022-08-14T02:15:00;20.80;99.90
12027;DHT22;6074;52.676;7.284;2022-08-14T02:17:28;20.80;99.90
12027;DHT22;6074;52.676;7.284;2022-08-14T02:32:13;20.50;99.90
12027;DHT22;6074;52.676;7.284;2022-08-14T02:34:42;20.80;99.90
12027;DHT22;6074;52.676;7.284;2022-08-14T02:37:11;20.70;99.90
12027;DHT22;6074;52.676;7.284;2022-08-14T02:39:40;20.90;99.90
12027;DHT22;6074;52.676;7.284;2022-08-14T02:42:09;20.70;99.90
12027;DHT22;6074;52.676;7.284;2022-08-14T02:47:04;21.00;99.90
12027;DHT22;6074;52.676;7.284;2022-08-14T02:49:34;20.60;99.90
12027;DHT22;6074;52.676;7.284;2022-08-14T02:56:56;20.70;99.90
12027;DHT22;6074;52.676;7.284;2022-08-14T02:59:26;20.60;99.90
12027;DHT22;6074;52.676;7.284;2022-08-14T03:01:56;20.70;99.90
12027;DHT22;6074;52.676;7.284;2022-08-14T03:06:54;20.50;99.90
12027;DHT22;6074;52.676;7.284;2022-08-14T03:09:21;20.70;99.90
12027;DHT22;6074;52.676;7.284;2022-08-14T03:16:42;20.30;99.90
12027;DHT22;6074;52.676;7.284;2022-08-14T03:19:10;20.60;99.90
12027;DHT22;6074;52.676;7.284;2022-08-14T03:21:37;20.90;99.90
12027;DHT22;6074;52.676;7.284;2022-08-14T03:24:06;20.50;99.90
12027;DHT22;6074;52.676;7.284;2022-08-14T03:26:37;20.50;99.90
12027;DHT22;6074;52.676;7.284;2022-08-14T03:29:05;20.50;99.90
12027;DHT22;6074;52.676;7.284;2022-08-14T03:31:33;20.40;99.90
12027;DHT22;6074;52.676;7.284;2022-08-14T03:34:01;20.50;99.90
12027;DHT22;6074;52.676;7.284;2022-08-14T03:38:58;20.40;99.90
12027;DHT22;6074;52.676;7.284;2022-08-14T03:41:27;20.40;99.90
12027;DHT22;6074;52.676;7.284;2022-08-14T03:43:56;20.40;99.90
12027;DHT22;6074;52.676;7.284;2022-08-14T03:46:24;19.80;99.90
12027;DHT22;6074;52.676;7.284;2022-08-14T03:51:20;20.70;99.90
12027;DHT22;6074;52.676;7.284;2022-08-14T03:56:16;20.40;99.90
12027;DHT22;6074;52.676;7.284;2022-08-14T03:58:46;20.30;99.90
12027;DHT22;6074;52.676;7.284;2022-08-14T04:01:14;20.30;99.90
12027;DHT22;6074;52.676;7.284;2022-08-14T04:03:43;20.20;99.90
12027;DHT22;6074;52.676;7.284;2022-08-14T04:06:11;20.30;99.90
12027;DHT22;6074;52.676;7.284;2022-08-14T04:08:39;20.20;99.90
12027;DHT22;6074;52.676;7.284;2022-08-14T04:11:07;20.60;99.90
12027;DHT22;6074;52.676;7.284;2022-08-14T04:13:35;20.10;99.90
12027;DHT22;6074;52.676;7.284;2022-08-14T04:16:08;20.20;99.90
12027;DHT22;6074;52.676;7.284;2022-08-14T04:18:37;20.50;99.90
12027;DHT22;6074;52.676;7.284;2022-08-14T04:21:06;19.80;99.90
12027;DHT22;6074;52.676;7.284;2022-08-14T04:23:33;18.10;99.90
12027;DHT22;6074;52.676;7.284;2022-08-14T04:26:01;20.10;99.90
12027;DHT22;6074;52.676;7.284;2022-08-14T04:28:28;19.60;99.90
12027;DHT22;6074;52.676;7.284;2022-08-14T04:33:23;19.50;99.90
12027;DHT22;6074;52.676;7.284;2022-08-14T04:38:20;19.30;99.90
12027;DHT22;6074;52.676;7.284;2022-08-14T04:46:19;19.10;99.90
12027;DHT22;6074;52.676;7.284;2022-08-14T04:48:47;19.20;99.90
12027;DHT22;6074;52.676;7.284;2022-08-14T04:51:15;19.00;99.90
12027;DHT22;6074;52.676;7.284;2022-08-14T04:53:44;18.90;99.90
12027;DHT22;6074;52.676;7.284;2022-08-14T04:56:12;18.90;99.90
12027;DHT22;6074;52.676;7.284;2022-08-14T05:01:09;18.70;99.90
12027;DHT22;6074;52.676;7.284;2022-08-14T05:03:37;18.80;99.90
12027;DHT22;6074;52.676;7.284;2022-08-14T05:06:07;18.80;99.90
12027;DHT22;6074;52.676;7.284;2022-08-14T05:08:35;18.80;99.90
12027;DHT22;6074;52.676;7.284;2022-08-14T05:11:05;18.90;99.90
12027;DHT22;6074;52.676;7.284;2022-08-14T05:13:34;18.70;99.90
12027;DHT22;6074;52.676;7.284;2022-08-14T05:16:02;18.90;99.90
12027;DHT22;6074;52.676;7.284;2022-08-14T05:18:31;19.00;99.90
12027;DHT22;6074;52.676;7.284;2022-08-14T05:21:00;19.10;99.90
12027;DHT22;6074;52.676;7.284;2022-08-14T05:23:31;19.30;99.90
12027;DHT22;6074;52.676;7.284;2022-08-14T05:25:59;19.10;99.90
12027;DHT22;6074;52.676;7.284;2022-08-14T05:28:28;19.10;99.90
12027;DHT22;6074;52.676;7.284;2022-08-14T05:30:57;19.20;99.90
12027;DHT22;6074;52.676;7.284;2022-08-14T05:33:26;18.80;99.90
12027;DHT22;6074;52.676;7.284;2022-08-14T05:35:55;19.40;99.90
12027;DHT22;6074;52.676;7.284;2022-08-14T05:38:26;19.40;99.90
12027;DHT22;6074;52.676;7.284;2022-08-14T05:40:55;19.40;99.90
12027;DHT22;6074;52.676;7.284;2022-08-14T05:43:22;19.70;99.90
12027;DHT22;6074;52.676;7.284;2022-08-14T05:48:16;19.90;99.90
12027;DHT22;6074;52.676;7.284;2022-08-14T05:55:38;19.80;99.90
12027;DHT22;6074;52.676;7.284;2022-08-14T05:58:07;20.10;99.90
12027;DHT22;6074;52.676;7.284;2022-08-14T06:00:35;20.20;99.90
12027;DHT22;6074;52.676;7.284;2022-08-14T06:03:04;20.00;99.90
12027;DHT22;6074;52.676;7.284;2022-08-14T06:07:59;20.20;99.90
12027;DHT22;6074;52.676;7.284;2022-08-14T06:10:28;20.40;99.90
12027;DHT22;6074;52.676;7.284;2022-08-14T06:12:56;20.60;99.90
12027;DHT22;6074;52.676;7.284;2022-08-14T06:15:24;20.50;99.90
12027;DHT22;6074;52.676;7.284;2022-08-14T06:17:52;20.80;99.90
12027;DHT22;6074;52.676;7.284;2022-08-14T06:22:47;21.70;99.90
12027;DHT22;6074;52.676;7.284;2022-08-14T06:27:43;21.00;99.90
12027;DHT22;6074;52.676;7.284;2022-08-14T06:30:12;20.70;99.90
12027;DHT22;6074;52.676;7.284;2022-08-14T06:32:41;21.60;99.90
12027;DHT22;6074;52.676;7.284;2022-08-14T06:35:09;21.00;99.90
12027;DHT22;6074;52.676;7.284;2022-08-14T06:37:41;20.80;99.90
12027;DHT22;6074;52.676;7.284;2022-08-14T06:40:09;21.40;99.90
12027;DHT22;6074;52.676;7.284;2022-08-14T06:45:05;21.50;99.90
12027;DHT22;6074;52.676;7.284;2022-08-14T06:47:33;21.50;99.90
12027;DHT22;6074;52.676;7.284;2022-08-14T06:50:02;21.60;99.90
12027;DHT22;6074;52.676;7.284;2022-08-14T06:54:56;21.60;99.90
12027;DHT22;6074;52.676;7.284;2022-08-14T06:57:24;21.50;99.90
12027;DHT22;6074;52.676;7.284;2022-08-14T07:02:19;21.40;99.90
12027;DHT22;6074;52.676;7.284;2022-08-14T07:05:04;21.80;99.90
12027;DHT22;6074;52.676;7.284;2022-08-14T07:07:50;21.90;99.90
12027;DHT22;6074;52.676;7.284;2022-08-14T07:10:17;22.30;99.90
12027;DHT22;6074;52.676;7.284;2022-08-14T07:15:13;22.10;99.90
12027;DHT22;6074;52.676;7.284;2022-08-14T07:17:44;22.00;99.90
12027;DHT22;6074;52.676;7.284;2022-08-14T07:20:13;22.30;99.90
12027;DHT22;6074;52.676;7.284;2022-08-14T07:22:40;22.20;99.90
12027;DHT22;6074;52.676;7.284;2022-08-14T07:25:08;22.50;99.90
12027;DHT22;6074;52.676;7.284;2022-08-14T07:30:03;22.70;99.90
12027;DHT22;6074;52.676;7.284;2022-08-14T07:37:25;22.70;99.90
12027;DHT22;6074;52.676;7.284;2022-08-14T07:39:52;22.80;99.90
12027;DHT22;6074;52.676;7.284;2022-08-14T07:54:36;23.40;99.90
12027;DHT22;6074;52.676;7.284;2022-08-14T07:57:03;23.40;99.90
12027;DHT22;6074;52.676;7.284;2022-08-14T08:04:28;23.50;99.90
12027;DHT22;6074;52.676;7.284;2022-08-14T08:09:24;24.10;99.90
12027;DHT22;6074;52.676;7.284;2022-08-14T08:11:53;23.60;99.90
12027;DHT22;6074;52.676;7.284;2022-08-14T08:14:20;23.50;99.90
12027;DHT22;6074;52.676;7.284;2022-08-14T08:19:15;23.20;99.90
12027;DHT22;6074;52.676;7.284;2022-08-14T08:29:07;24.00;99.90
12027;DHT22;6074;52.676;7.284;2022-08-14T08:31:45;23.90;99.90
12027;DHT22;6074;52.676;7.284;2022-08-14T08:41:39;24.20;99.90
12027;DHT22;6074;52.676;7.284;2022-08-14T08:44:08;24.10;99.90
12027;DHT22;6074;52.676;7.284;2022-08-14T08:49:02;24.30;99.90
12027;DHT22;6074;52.676;7.284;2022-08-14T08:51:31;24.40;99.90
12027;DHT22;6074;52.676;7.284;2022-08-14T08:54:01;24.10;99.90
12027;DHT22;6074;52.676;7.284;2022-08-14T08:56:33;24.60;99.90
12027;DHT22;6074;52.676;7.284;2022-08-14T08:59:00;24.30;99.90
12027;DHT22;6074;52.676;7.284;2022-08-14T09:01:29;24.90;99.90
12027;DHT22;6074;52.676;7.284;2022-08-14T09:04:01;24.50;99.90
12027;DHT22;6074;52.676;7.284;2022-08-14T09:11:22;25.50;99.90
12027;DHT22;6074;52.676;7.284;2022-08-14T09:13:51;25.70;98.50
12027;DHT22;6074;52.676;7.284;2022-08-14T09:16:20;25.80;98.00
12027;DHT22;6074;52.676;7.284;2022-08-14T09:18:48;25.90;98.00
12027;DHT22;6074;52.676;7.284;2022-08-14T09:31:04;26.60;95.90
12027;DHT22;6074;52.676;7.284;2022-08-14T09:33:54;26.70;95.70
12027;DHT22;6074;52.676;7.284;2022-08-14T09:39:26;27.10;97.20
12027;DHT22;6074;52.676;7.284;2022-08-14T09:42:13;26.80;98.90
12027;DHT22;6074;52.676;7.284;2022-08-14T09:44:46;27.20;95.60
12027;DHT22;6074;52.676;7.284;2022-08-14T09:47:15;27.80;96.70
12027;DHT22;6074;52.676;7.284;2022-08-14T09:49:44;27.50;93.70
12027;DHT22;6074;52.676;7.284;2022-08-14T09:52:12;27.70;93.50
12027;DHT22;6074;52.676;7.284;2022-08-14T09:54:41;27.80;93.20
12027;DHT22;6074;52.676;7.284;2022-08-14T09:57:09;28.50;98.00
12027;DHT22;6074;52.676;7.284;2022-08-14T09:59:40;27.90;96.00
12027;DHT22;6074;52.676;7.284;2022-08-14T10:02:21;30.00;92.60
12027;DHT22;6074;52.676;7.284;2022-08-14T10:05:10;28.80;94.10
12027;DHT22;6074;52.676;7.284;2022-08-14T10:07:45;28.90;92.90
12027;DHT22;6074;52.676;7.284;2022-08-14T10:10:27;28.60;90.30
12027;DHT22;6074;52.676;7.284;2022-08-14T10:15:26;28.20;93.50
12027;DHT22;6074;52.676;7.284;2022-08-14T10:18:04;29.40;93.70
12027;DHT22;6074;52.676;7.284;2022-08-14T10:20:35;29.00;93.40
12027;DHT22;6074;52.676;7.284;2022-08-14T10:23:10;29.20;86.00
12027;DHT22;6074;52.676;7.284;2022-08-14T10:25:41;29.20;84.40
12027;DHT22;6074;52.676;7.284;2022-08-14T10:28:08;29.70;90.90
12027;DHT22;6074;52.676;7.284;2022-08-14T10:33:07;29.40;88.60
12027;DHT22;6074;52.676;7.284;2022-08-14T10:35:42;29.50;82.20
12027;DHT22;6074;52.676;7.284;2022-08-14T10:40:36;29.50;90.10
12027;DHT22;6074;52.676;7.284;2022-08-14T10:43:17;29.80;79.20
12027;DHT22;6074;52.676;7.284;2022-08-14T10:45:54;30.30;89.40
12027;DHT22;6074;52.676;7.284;2022-08-14T10:48:23;29.90;77.80
12027;DHT22;6074;52.676;7.284;2022-08-14T10:50:54;29.40;88.70
12027;DHT22;6074;52.676;7.284;2022-08-14T10:53:29;29.90;81.00
12027;DHT22;6074;52.676;7.284;2022-08-14T10:55:58;29.50;86.00
12027;DHT22;6074;52.676;7.284;2022-08-14T10:58:27;29.90;84.80
12027;DHT22;6074;52.676;7.284;2022-08-14T11:00:56;30.30;86.60
12027;DHT22;6074;52.676;7.284;2022-08-14T11:05:51;30.20;76.90
12027;DHT22;6074;52.676;7.284;2022-08-14T11:08:30;30.40;87.10
12027;DHT22;6074;52.676;7.284;2022-08-14T11:10:58;30.10;77.30
12027;DHT22;6074;52.676;7.284;2022-08-14T11:13:29;30.10;76.50
12027;DHT22;6074;52.676;7.284;2022-08-14T11:15:58;30.30;80.40
12027;DHT22;6074;52.676;7.284;2022-08-14T11:18:26;30.40;78.50
12027;DHT22;6074;52.676;7.284;2022-08-14T11:20:54;30.50;77.50
12027;DHT22;6074;52.676;7.284;2022-08-14T11:23:27;30.60;77.30
12027;DHT22;6074;52.676;7.284;2022-08-14T11:25:56;30.70;76.10
12027;DHT22;6074;52.676;7.284;2022-08-14T11:28:25;30.30;74.50
12027;DHT22;6074;52.676;7.284;2022-08-14T11:30:53;30.50;82.70
12027;DHT22;6074;52.676;7.284;2022-08-14T11:33:22;30.40;71.20
12027;DHT22;6074;52.676;7.284;2022-08-14T11:38:16;29.00;83.20
12027;DHT22;6074;52.676;7.284;2022-08-14T11:40:47;29.60;74.10
12027;DHT22;6074;52.676;7.284;2022-08-14T11:43:14;29.40;75.90
12027;DHT22;6074;52.676;7.284;2022-08-14T11:45:46;28.80;83.60
12027;DHT22;6074;52.676;7.284;2022-08-14T11:48:15;29.40;73.30
12027;DHT22;6074;52.676;7.284;2022-08-14T11:50:43;29.30;73.20
12027;DHT22;6074;52.676;7.284;2022-08-14T11:53:20;29.00;73.40
12027;DHT22;6074;52.676;7.284;2022-08-14T11:55:54;28.40;75.90
12027;DHT22;6074;52.676;7.284;2022-08-14T11:58:25;29.50;75.50
12027;DHT22;6074;52.676;7.284;2022-08-14T12:00:56;28.80;71.90
12027;DHT22;6074;52.676;7.284;2022-08-14T12:03:37;28.60;81.20
12027;DHT22;6074;52.676;7.284;2022-08-14T12:06:07;28.20;71.90
12027;DHT22;6074;52.676;7.284;2022-08-14T12:08:34;29.00;80.60
12027;DHT22;6074;52.676;7.284;2022-08-14T12:11:05;28.90;72.70
12027;DHT22;6074;52.676;7.284;2022-08-14T12:13:33;30.40;73.50
12027;DHT22;6074;52.676;7.284;2022-08-14T12:16:03;28.80;72.30
12027;DHT22;6074;52.676;7.284;2022-08-14T12:18:33;29.20;75.40
12027;DHT22;6074;52.676;7.284;2022-08-14T12:21:11;28.40;82.60
12027;DHT22;6074;52.676;7.284;2022-08-14T12:23:39;28.90;82.40
12027;DHT22;6074;52.676;7.284;2022-08-14T12:26:08;28.80;78.80
12027;DHT22;6074;52.676;7.284;2022-08-14T12:28:36;29.30;80.60
12027;DHT22;6074;52.676;7.284;2022-08-14T12:31:11;29.20;71.60
12027;DHT22;6074;52.676;7.284;2022-08-14T12:33:43;29.50;82.30
12027;DHT22;6074;52.676;7.284;2022-08-14T12:38:47;29.20;70.50
12027;DHT22;6074;52.676;7.284;2022-08-14T12:41:19;29.40;70.70
12027;DHT22;6074;52.676;7.284;2022-08-14T12:43:48;29.10;77.60
12027;DHT22;6074;52.676;7.284;2022-08-14T12:46:24;29.30;70.10
12027;DHT22;6074;52.676;7.284;2022-08-14T12:48:52;29.30;70.60
12027;DHT22;6074;52.676;7.284;2022-08-14T12:51:21;29.20;70.20
12027;DHT22;6074;52.676;7.284;2022-08-14T12:53:50;28.80;79.80
12027;DHT22;6074;52.676;7.284;2022-08-14T12:56:20;29.30;70.60
12027;DHT22;6074;52.676;7.284;2022-08-14T12:58:51;29.30;70.30
12027;DHT22;6074;52.676;7.284;2022-08-14T13:01:19;29.10;69.90
12027;DHT22;6074;52.676;7.284;2022-08-14T13:03:47;29.50;72.60
12027;DHT22;6074;52.676;7.284;2022-08-14T13:06:14;29.80;69.80
12027;DHT22;6074;52.676;7.284;2022-08-14T13:11:11;29.60;80.10
12027;DHT22;6074;52.676;7.284;2022-08-14T13:13:41;29.10;75.00
12027;DHT22;6074;52.676;7.284;2022-08-14T13:16:10;29.30;71.80
12027;DHT22;6074;52.676;7.284;2022-08-14T13:18:42;29.40;73.10
12027;DHT22;6074;52.676;7.284;2022-08-14T13:21:11;29.50;75.50
12027;DHT22;6074;52.676;7.284;2022-08-14T13:23:41;29.20;70.60
12027;DHT22;6074;52.676;7.284;2022-08-14T13:26:09;29.30;77.60
12027;DHT22;6074;52.676;7.284;2022-08-14T13:28:40;29.60;78.20
12027;DHT22;6074;52.676;7.284;2022-08-14T13:31:13;29.10;69.70
12027;DHT22;6074;52.676;7.284;2022-08-14T13:36:08;29.50;79.80
12027;DHT22;6074;52.676;7.284;2022-08-14T13:38:35;29.10;74.00
12027;DHT22;6074;52.676;7.284;2022-08-14T13:41:04;29.40;81.90
12027;DHT22;6074;52.676;7.284;2022-08-14T13:43:34;29.10;70.50
12027;DHT22;6074;52.676;7.284;2022-08-14T13:46:05;29.20;70.10
12027;DHT22;6074;52.676;7.284;2022-08-14T13:48:32;29.20;80.70
12027;DHT22;6074;52.676;7.284;2022-08-14T13:51:03;29.80;81.10
12027;DHT22;6074;52.676;7.284;2022-08-14T13:53:35;29.70;81.70
12027;DHT22;6074;52.676;7.284;2022-08-14T13:56:10;29.60;81.90
12027;DHT22;6074;52.676;7.284;2022-08-14T13:58:40;29.20;70.70
12027;DHT22;6074;52.676;7.284;2022-08-14T14:01:09;29.10;71.50
12027;DHT22;6074;52.676;7.284;2022-08-14T14:03:38;29.00;74.50
12027;DHT22;6074;52.676;7.284;2022-08-14T14:06:10;28.90;77.60
12027;DHT22;6074;52.676;7.284;2022-08-14T14:08:44;29.20;71.70
12027;DHT22;6074;52.676;7.284;2022-08-14T14:11:13;29.20;71.10
12027;DHT22;6074;52.676;7.284;2022-08-14T14:16:09;29.20;70.60
12027;DHT22;6074;52.676;7.284;2022-08-14T14:23:32;30.80;70.50
12027;DHT22;6074;52.676;7.284;2022-08-14T14:28:28;29.10;68.90
12027;DHT22;6074;52.676;7.284;2022-08-14T14:30:59;29.00;69.40
12027;DHT22;6074;52.676;7.284;2022-08-14T14:33:29;29.00;69.80
12027;DHT22;6074;52.676;7.284;2022-08-14T14:36:02;29.10;78.10
12027;DHT22;6074;52.676;7.284;2022-08-14T14:38:30;29.00;71.10
12027;DHT22;6074;52.676;7.284;2022-08-14T14:41:00;29.30;82.80
12027;DHT22;6074;52.676;7.284;2022-08-14T14:43:28;29.70;80.20
12027;DHT22;6074;52.676;7.284;2022-08-14T14:48:28;28.80;81.20
12027;DHT22;6074;52.676;7.284;2022-08-14T14:50:57;29.40;68.80
12027;DHT22;6074;52.676;7.284;2022-08-14T14:53:26;29.40;68.40
12027;DHT22;6074;52.676;7.284;2022-08-14T14:55:54;29.50;68.90
12027;DHT22;6074;52.676;7.284;2022-08-14T14:58:22;29.00;73.80
12027;DHT22;6074;52.676;7.284;2022-08-14T15:00:52;29.60;68.40
12027;DHT22;6074;52.676;7.284;2022-08-14T15:05:48;29.60;78.90
12027;DHT22;6074;52.676;7.284;2022-08-14T15:10:44;29.70;78.40
12027;DHT22;6074;52.676;7.284;2022-08-14T15:13:11;29.80;68.40
12027;DHT22;6074;52.676;7.284;2022-08-14T15:20:32;29.40;73.80
12027;DHT22;6074;52.676;7.284;2022-08-14T15:23:00;29.80;65.70
12027;DHT22;6074;52.676;7.284;2022-08-14T15:30:23;29.80;76.40
12027;DHT22;6074;52.676;7.284;2022-08-14T15:40:15;29.20;69.90
12027;DHT22;6074;52.676;7.284;2022-08-14T15:45:10;28.90;75.20
12027;DHT22;6074;52.676;7.284;2022-08-14T15:47:37;28.50;76.70
12027;DHT22;6074;52.676;7.284;2022-08-14T15:50:06;27.80;89.40
12027;DHT22;6074;52.676;7.284;2022-08-14T15:52:34;28.30;81.10
12027;DHT22;6074;52.676;7.284;2022-08-14T15:55:05;27.90;82.00
12027;DHT22;6074;52.676;7.284;2022-08-14T15:57:34;27.80;82.10
12027;DHT22;6074;52.676;7.284;2022-08-14T16:00:02;28.00;86.90
12027;DHT22;6074;52.676;7.284;2022-08-14T16:07:44;27.40;90.00
12027;DHT22;6074;52.676;7.284;2022-08-14T16:10:10;27.00;92.70
12027;DHT22;6074;52.676;7.284;2022-08-14T16:12:39;27.10;85.90
12027;DHT22;6074;52.676;7.284;2022-08-14T16:15:06;27.20;87.10
12027;DHT22;6074;52.676;7.284;2022-08-14T16:17:36;27.10;93.90
12027;DHT22;6074;52.676;7.284;2022-08-14T16:20:04;27.60;94.20
12027;DHT22;6074;52.676;7.284;2022-08-14T16:24:59;27.00;87.70
12027;DHT22;6074;52.676;7.284;2022-08-14T16:27:28;27.00;87.40
12027;DHT22;6074;52.676;7.284;2022-08-14T16:29:57;27.10;86.90
12027;DHT22;6074;52.676;7.284;2022-08-14T16:37:18;26.80;87.90
12027;DHT22;6074;52.676;7.284;2022-08-14T16:39:46;27.20;84.90
12027;DHT22;6074;52.676;7.284;2022-08-14T16:42:13;27.10;87.70
12027;DHT22;6074;52.676;7.284;2022-08-14T16:44:40;27.00;84.10
12027;DHT22;6074;52.676;7.284;2022-08-14T16:47:10;27.90;92.70
12027;DHT22;6074;52.676;7.284;2022-08-14T16:49:38;27.20;83.90
12027;DHT22;6074;52.676;7.284;2022-08-14T16:52:07;27.30;83.50
12027;DHT22;6074;52.676;7.284;2022-08-14T16:57:12;27.40;81.50
12027;DHT22;6074;52.676;7.284;2022-08-14T16:59:40;27.40;89.00
12027;DHT22;6074;52.676;7.284;2022-08-14T17:02:08;27.40;80.70
12027;DHT22;6074;52.676;7.284;2022-08-14T17:07:04;27.50;80.10
12027;DHT22;6074;52.676;7.284;2022-08-14T17:09:34;27.70;79.10
12027;DHT22;6074;52.676;7.284;2022-08-14T17:12:06;27.80;78.40
12027;DHT22;6074;52.676;7.284;2022-08-14T17:14:52;27.80;77.20
12027;DHT22;6074;52.676;7.284;2022-08-14T17:17:24;27.90;77.10
12027;DHT22;6074;52.676;7.284;2022-08-14T17:19:58;27.80;77.40
12027;DHT22;6074;52.676;7.284;2022-08-14T17:22:43;27.80;77.50
12027;DHT22;6074;52.676;7.284;2022-08-14T17:25:10;27.30;86.90
12027;DHT22;6074;52.676;7.284;2022-08-14T17:27:37;27.60;85.50
12027;DHT22;6074;52.676;7.284;2022-08-14T17:30:04;27.60;78.60
12027;DHT22;6074;52.676;7.284;2022-08-14T17:32:36;28.20;90.00
12027;DHT22;6074;52.676;7.284;2022-08-14T17:35:04;27.50;78.80
12027;DHT22;6074;52.676;7.284;2022-08-14T17:37:33;27.50;79.10
12027;DHT22;6074;52.676;7.284;2022-08-14T17:40:05;27.40;79.60
12027;DHT22;6074;52.676;7.284;2022-08-14T17:42:48;27.40;90.70
12027;DHT22;6074;52.676;7.284;2022-08-14T17:45:20;27.20;82.30
12027;DHT22;6074;52.676;7.284;2022-08-14T17:47:50;27.20;81.10
12027;DHT22;6074;52.676;7.284;2022-08-14T17:50:17;27.10;81.20
12027;DHT22;6074;52.676;7.284;2022-08-14T17:53:04;27.20;86.30
12027;DHT22;6074;52.676;7.284;2022-08-14T17:55:31;27.00;80.80
12027;DHT22;6074;52.676;7.284;2022-08-14T17:58:00;27.00;80.70
12027;DHT22;6074;52.676;7.284;2022-08-14T18:00:27;26.90;81.10
12027;DHT22;6074;52.676;7.284;2022-08-14T18:02:58;27.10;82.10
12027;DHT22;6074;52.676;7.284;2022-08-14T18:05:27;26.80;82.70
12027;DHT22;6074;52.676;7.284;2022-08-14T18:07:54;26.70;89.90
12027;DHT22;6074;52.676;7.284;2022-08-14T18:10:23;26.90;90.10
12027;DHT22;6074;52.676;7.284;2022-08-14T18:12:53;25.90;92.40
12027;DHT22;6074;52.676;7.284;2022-08-14T18:15:22;26.30;87.10
12027;DHT22;6074;52.676;7.284;2022-08-14T18:17:50;26.20;86.70
12027;DHT22;6074;52.676;7.284;2022-08-14T18:20:18;26.00;87.60
12027;DHT22;6074;52.676;7.284;2022-08-14T18:22:48;25.80;88.10
12027;DHT22;6074;52.676;7.284;2022-08-14T18:25:15;25.80;88.60
12027;DHT22;6074;52.676;7.284;2022-08-14T18:27:46;25.70;89.50
12027;DHT22;6074;52.676;7.284;2022-08-14T18:30:20;25.60;89.50
12027;DHT22;6074;52.676;7.284;2022-08-14T18:32:48;25.50;95.00
12027;DHT22;6074;52.676;7.284;2022-08-14T18:35:18;24.80;95.00
12027;DHT22;6074;52.676;7.284;2022-08-14T18:37:48;27.40;91.10
12027;DHT22;6074;52.676;7.284;2022-08-14T18:40:31;25.30;90.70
12027;DHT22;6074;52.676;7.284;2022-08-14T18:43:02;25.20;90.90
12027;DHT22;6074;52.676;7.284;2022-08-14T18:45:35;25.10;91.10
12027;DHT22;6074;52.676;7.284;2022-08-14T18:48:09;25.00;91.40
12027;DHT22;6074;52.676;7.284;2022-08-14T18:50:53;25.20;94.00
12027;DHT22;6074;52.676;7.284;2022-08-14T18:53:22;24.90;92.50
12027;DHT22;6074;52.676;7.284;2022-08-14T18:55:52;24.70;97.20
12027;DHT22;6074;52.676;7.284;2022-08-14T18:58:21;24.40;97.40
12027;DHT22;6074;52.676;7.284;2022-08-14T19:00:55;24.10;95.60
12027;DHT22;6074;52.676;7.284;2022-08-14T19:03:53;24.40;92.90
12027;DHT22;6074;52.676;7.284;2022-08-14T19:06:41;24.30;93.20
12027;DHT22;6074;52.676;7.284;2022-08-14T19:12:57;24.00;93.60
12027;DHT22;6074;52.676;7.284;2022-08-14T19:15:30;23.90;94.00
12027;DHT22;6074;52.676;7.284;2022-08-14T19:17:57;23.90;94.30
12027;DHT22;6074;52.676;7.284;2022-08-14T19:22:53;23.70;94.80
12027;DHT22;6074;52.676;7.284;2022-08-14T19:25:46;23.60;95.10
12027;DHT22;6074;52.676;7.284;2022-08-14T19:28:19;23.50;95.40
12027;DHT22;6074;52.676;7.284;2022-08-14T19:33:46;23.40;96.00
12027;DHT22;6074;52.676;7.284;2022-08-14T19:36:14;23.30;96.30
12027;DHT22;6074;52.676;7.284;2022-08-14T19:38:52;23.30;96.70
12027;DHT22;6074;52.676;7.284;2022-08-14T19:41:21;23.00;99.90
12027;DHT22;6074;52.676;7.284;2022-08-14T19:43:51;23.30;97.40
12027;DHT22;6074;52.676;7.284;2022-08-14T19:46:25;23.30;97.70
12027;DHT22;6074;52.676;7.284;2022-08-14T19:48:53;23.10;99.90
12027;DHT22;6074;52.676;7.284;2022-08-14T19:51:22;23.40;98.40
12027;DHT22;6074;52.676;7.284;2022-08-14T19:58:51;23.10;98.90
12027;DHT22;6074;52.676;7.284;2022-08-14T20:01:26;23.10;99.40
12027;DHT22;6074;52.676;7.284;2022-08-14T20:03:54;22.70;99.90
12027;DHT22;6074;52.676;7.284;2022-08-14T20:06:21;23.10;99.90
12027;DHT22;6074;52.676;7.284;2022-08-14T20:08:57;23.00;99.90
12027;DHT22;6074;52.676;7.284;2022-08-14T20:11:28;22.90;99.90
12027;DHT22;6074;52.676;7.284;2022-08-14T20:13:58;23.00;99.90
12027;DHT22;6074;52.676;7.284;2022-08-14T20:16:31;22.80;99.90
12027;DHT22;6074;52.676;7.284;2022-08-14T20:19:18;22.50;99.90
12027;DHT22;6074;52.676;7.284;2022-08-14T20:21:50;22.60;99.90
12027;DHT22;6074;52.676;7.284;2022-08-14T20:24:26;22.60;99.90
12027;DHT22;6074;52.676;7.284;2022-08-14T20:27:19;22.60;99.90